createdAt,value
2017-07-21T00:01:51.093Z,20.00
2017-07-21T00:04:17.390Z,19.90
2017-07-21T00:06:43.667Z,19.90
2017-07-21T00:09:09.935Z,19.80
2017-07-21T00:11:36.205Z,19.40
2017-07-21T00:14:02.472Z,19.80
2017-07-21T00:16:28.749Z,19.70
2017-07-21T00:18:55.903Z,19.60
2017-07-21T00:21:22.933Z,19.40
2017-07-21T00:23:49.193Z,19.30
2017-07-21T00:26:15.489Z,19.40
2017-07-21T00:28:41.767Z,19.30
2017-07-21T00:31:08.048Z,19.00
2017-07-21T00:33:34.311Z,18.80
2017-07-21T00:36:00.572Z,18.80
2017-07-21T00:38:26.860Z,18.80
2017-07-21T00:40:53.874Z,18.80
2017-07-21T00:43:20.171Z,18.70
2017-07-21T00:45:46.477Z,18.90
2017-07-21T00:48:12.806Z,19.00
2017-07-21T00:50:39.073Z,18.90
2017-07-21T00:53:05.376Z,18.90
2017-07-21T00:55:31.644Z,18.80
2017-07-21T00:57:57.938Z,19.00
2017-07-21T01:00:24.230Z,18.80
2017-07-21T01:02:50.551Z,18.80
2017-07-21T01:05:18.671Z,19.00
2017-07-21T01:07:44.984Z,19.00
2017-07-21T01:10:11.319Z,18.80
2017-07-21T01:12:37.603Z,18.80
2017-07-21T01:15:03.886Z,19.00
2017-07-21T01:17:30.857Z,18.80
2017-07-21T01:19:57.241Z,18.70
2017-07-21T01:22:23.513Z,18.50
2017-07-21T01:24:50.617Z,18.50
2017-07-21T01:27:17.613Z,18.20
2017-07-21T01:29:43.896Z,18.10
2017-07-21T01:32:10.181Z,18.40
2017-07-21T01:34:36.456Z,18.80
2017-07-21T01:37:03.484Z,18.60
2017-07-21T01:39:30.935Z,18.40
2017-07-21T01:41:57.977Z,18.40
2017-07-21T01:44:25.004Z,18.50
2017-07-21T01:46:51.283Z,18.40
2017-07-21T01:49:17.575Z,18.40
2017-07-21T01:51:43.894Z,18.30
2017-07-21T01:54:10.155Z,18.20
2017-07-21T01:56:37.205Z,18.50
2017-07-21T01:59:04.227Z,18.30
2017-07-21T02:01:30.545Z,18.30
2017-07-21T02:03:56.872Z,18.30
2017-07-21T02:06:23.547Z,18.10
2017-07-21T02:08:49.889Z,18.10
2017-07-21T02:11:16.176Z,17.90
2017-07-21T02:13:42.433Z,18.00
2017-07-21T02:16:09.438Z,18.10
2017-07-21T02:18:36.522Z,18.10
2017-07-21T02:21:02.784Z,18.00
2017-07-21T02:23:29.063Z,18.10
2017-07-21T02:25:55.315Z,18.10
2017-07-21T02:28:21.574Z,17.90
2017-07-21T02:30:47.900Z,18.00
2017-07-21T02:33:14.203Z,18.20
2017-07-21T02:35:40.457Z,18.40
2017-07-21T02:38:06.711Z,18.10
2017-07-21T02:40:32.973Z,18.30
2017-07-21T02:42:59.245Z,18.30
2017-07-21T02:45:25.501Z,18.30
2017-07-21T02:47:51.773Z,18.20
2017-07-21T02:50:18.793Z,18.20
2017-07-21T02:52:45.049Z,18.10
2017-07-21T02:55:11.321Z,18.20
2017-07-21T02:57:37.604Z,18.00
2017-07-21T03:00:03.884Z,18.20
2017-07-21T03:02:30.185Z,18.10
2017-07-21T03:04:56.478Z,18.20
2017-07-21T03:07:22.764Z,18.10
2017-07-21T03:09:49.024Z,18.30
2017-07-21T03:12:15.271Z,18.40
2017-07-21T03:14:41.552Z,18.40
2017-07-21T03:17:07.824Z,18.40
2017-07-21T03:19:34.143Z,18.50
2017-07-21T03:22:00.436Z,18.50
2017-07-21T03:24:26.733Z,18.50
2017-07-21T03:26:53.057Z,18.60
2017-07-21T03:29:20.085Z,18.40
2017-07-21T03:31:46.362Z,18.40
2017-07-21T03:34:12.644Z,18.50
2017-07-21T03:36:39.007Z,18.50
2017-07-21T03:39:06.053Z,18.40
2017-07-21T03:41:33.086Z,18.60
2017-07-21T03:44:00.098Z,18.50
2017-07-21T03:46:26.393Z,18.50
2017-07-21T03:48:52.667Z,18.60
2017-07-21T03:51:18.952Z,18.60
2017-07-21T03:53:45.259Z,18.70
2017-07-21T03:56:11.681Z,18.90
2017-07-21T03:58:37.962Z,18.80
2017-07-21T04:01:04.267Z,18.70
2017-07-21T04:03:30.548Z,18.60
2017-07-21T04:05:56.861Z,18.70
2017-07-21T04:08:23.155Z,18.60
2017-07-21T04:10:49.429Z,18.50
2017-07-21T04:13:15.703Z,18.70
2017-07-21T04:15:41.977Z,18.80
2017-07-21T04:18:08.287Z,18.90
2017-07-21T04:20:34.566Z,18.70
2017-07-21T04:23:00.837Z,18.70
2017-07-21T04:25:27.133Z,18.50
2017-07-21T04:27:54.166Z,18.50
2017-07-21T04:30:20.468Z,18.40
2017-07-21T04:32:46.725Z,18.60
2017-07-21T04:35:13.019Z,18.50
2017-07-21T04:37:39.317Z,18.60
2017-07-21T04:40:05.589Z,18.50
2017-07-21T04:42:31.873Z,18.60
2017-07-21T04:44:58.153Z,18.50
2017-07-21T04:47:24.430Z,18.50
2017-07-21T04:49:50.725Z,18.60
2017-07-21T04:52:16.985Z,18.50
2017-07-21T04:54:44.029Z,18.50
2017-07-21T04:57:11.059Z,18.60
2017-07-21T04:59:38.099Z,18.60
2017-07-21T05:02:05.150Z,18.60
2017-07-21T05:04:31.445Z,18.60
2017-07-21T05:06:57.746Z,19.00
2017-07-21T05:09:24.022Z,18.70
2017-07-21T05:11:50.358Z,19.00
2017-07-21T05:14:16.645Z,18.90
2017-07-21T05:16:42.932Z,19.00
2017-07-21T05:19:10.279Z,18.90
2017-07-21T05:21:36.573Z,18.90
2017-07-21T05:24:02.847Z,18.70
2017-07-21T05:26:29.912Z,18.70
2017-07-21T05:28:56.198Z,18.70
2017-07-21T05:31:22.479Z,18.80
2017-07-21T05:33:49.489Z,18.70
2017-07-21T05:36:15.767Z,18.70
2017-07-21T05:38:42.034Z,18.70
2017-07-21T05:41:08.328Z,18.60
2017-07-21T05:43:34.625Z,18.60
2017-07-21T05:46:00.952Z,18.50
2017-07-21T05:48:27.291Z,18.30
2017-07-21T05:50:53.562Z,18.40
2017-07-21T05:53:19.851Z,18.40
2017-07-21T05:55:46.867Z,18.40
2017-07-21T05:58:13.153Z,18.40
2017-07-21T06:00:39.424Z,18.10
2017-07-21T06:03:06.483Z,18.20
2017-07-21T06:05:33.549Z,18.10
2017-07-21T06:08:00.598Z,18.20
2017-07-21T06:10:27.591Z,18.30
2017-07-21T06:12:53.877Z,18.30
2017-07-21T06:15:20.904Z,18.30
2017-07-21T06:17:47.184Z,18.30
2017-07-21T06:20:13.479Z,18.20
2017-07-21T06:22:39.772Z,18.40
2017-07-21T06:25:06.078Z,18.50
2017-07-21T06:27:32.363Z,18.40
2017-07-21T06:29:59.402Z,18.60
2017-07-21T06:32:25.679Z,18.50
2017-07-21T06:34:52.789Z,18.50
2017-07-21T06:37:19.061Z,18.60
2017-07-21T06:39:45.395Z,18.70
2017-07-21T06:42:11.668Z,18.60
2017-07-21T06:44:37.940Z,18.50
2017-07-21T06:47:04.250Z,18.40
2017-07-21T06:49:30.528Z,18.60
2017-07-21T06:51:56.848Z,18.40
2017-07-21T06:54:23.144Z,18.60
2017-07-21T06:56:49.421Z,18.50
2017-07-21T06:59:15.713Z,18.70
2017-07-21T07:01:42.015Z,18.90
2017-07-21T07:04:08.302Z,18.80
2017-07-21T07:06:34.581Z,19.00
2017-07-21T07:09:00.839Z,19.10
2017-07-21T07:11:27.141Z,19.00
2017-07-21T07:13:53.422Z,18.80
2017-07-21T07:16:19.715Z,18.70
2017-07-21T07:18:45.989Z,18.90
2017-07-21T07:21:12.275Z,19.20
2017-07-21T07:23:38.544Z,19.30
2017-07-21T07:26:04.813Z,19.30
2017-07-21T07:28:31.849Z,19.30
2017-07-21T07:30:58.139Z,19.20
2017-07-21T07:33:24.432Z,19.40
2017-07-21T07:35:50.709Z,19.40
2017-07-21T07:38:16.975Z,19.40
2017-07-21T07:40:43.245Z,19.60
2017-07-21T07:43:09.534Z,19.70
2017-07-21T07:45:35.854Z,19.70
2017-07-21T07:48:02.876Z,19.40
2017-07-21T07:50:29.149Z,19.30
2017-07-21T07:52:55.441Z,19.60
2017-07-21T07:55:22.487Z,19.70
2017-07-21T07:57:49.527Z,20.00
2017-07-21T08:00:15.825Z,19.90
2017-07-21T08:02:42.116Z,20.00
2017-07-21T08:05:08.418Z,20.10
2017-07-21T08:07:34.707Z,19.80
2017-07-21T08:10:01.070Z,19.80
2017-07-21T08:12:27.363Z,20.00
2017-07-21T08:14:53.656Z,19.90
2017-07-21T08:17:20.712Z,20.00
2017-07-21T08:19:47.746Z,19.80
2017-07-21T08:22:14.788Z,19.60
2017-07-21T08:24:41.087Z,19.60
2017-07-21T08:27:07.388Z,19.50
2017-07-21T08:29:33.732Z,19.60
2017-07-21T08:32:00.068Z,19.90
2017-07-21T08:34:27.148Z,20.00
2017-07-21T08:36:53.420Z,20.00
2017-07-21T08:39:19.708Z,20.10
2017-07-21T08:41:45.976Z,19.80
2017-07-21T08:44:12.348Z,19.70
2017-07-21T08:46:38.626Z,20.10
2017-07-21T08:49:04.928Z,20.20
2017-07-21T08:51:31.214Z,20.30
2017-07-21T08:53:57.487Z,20.20
2017-07-21T08:56:23.820Z,20.40
2017-07-21T08:58:50.906Z,20.60
2017-07-21T09:01:17.197Z,20.60
2017-07-21T09:03:43.484Z,20.50
2017-07-21T09:06:11.266Z,20.10
2017-07-21T09:08:37.555Z,20.10
2017-07-21T09:11:03.842Z,19.90
2017-07-21T09:13:30.133Z,19.90
2017-07-21T09:15:56.412Z,20.10
2017-07-21T09:18:23.323Z,20.30
2017-07-21T09:20:49.628Z,20.40
2017-07-21T09:23:15.920Z,20.20
2017-07-21T09:25:42.315Z,20.50
2017-07-21T09:28:08.793Z,20.90
2017-07-21T09:30:35.140Z,20.90
2017-07-21T09:33:01.426Z,20.70
2017-07-21T09:35:27.724Z,20.50
2017-07-21T09:37:54.140Z,20.70
2017-07-21T09:40:20.444Z,20.70
2017-07-21T09:42:47.473Z,20.90
2017-07-21T09:45:21.670Z,20.80
2017-07-21T09:47:48.193Z,20.70
2017-07-21T09:50:14.485Z,20.50
2017-07-21T09:52:40.780Z,20.70
2017-07-21T09:55:07.072Z,20.50
2017-07-21T09:57:33.391Z,20.60
2017-07-21T09:59:59.701Z,20.80
2017-07-21T10:02:25.967Z,20.90
2017-07-21T10:04:52.201Z,21.10
2017-07-21T10:07:18.528Z,20.70
2017-07-21T10:09:44.803Z,21.00
2017-07-21T10:12:11.112Z,20.90
2017-07-21T10:14:38.152Z,20.80
2017-07-21T10:17:04.450Z,20.70
2017-07-21T10:19:30.753Z,20.80
2017-07-21T10:21:57.089Z,20.80
2017-07-21T10:24:23.342Z,20.90
2017-07-21T10:26:49.630Z,21.00
2017-07-21T10:29:16.714Z,21.10
2017-07-21T10:31:43.035Z,21.00
2017-07-21T10:34:09.404Z,21.20
2017-07-21T10:36:35.737Z,21.10
2017-07-21T10:39:02.053Z,21.30
2017-07-21T10:41:28.340Z,21.40
2017-07-21T10:43:54.625Z,21.30
2017-07-21T10:46:20.921Z,21.10
2017-07-21T10:48:47.194Z,21.10
2017-07-21T10:51:13.493Z,21.50
2017-07-21T10:53:39.788Z,21.60
2017-07-21T10:56:06.072Z,21.60
2017-07-21T10:58:32.368Z,21.50
2017-07-21T11:00:58.644Z,21.50
2017-07-21T11:03:25.675Z,21.10
2017-07-21T11:05:51.976Z,21.00
2017-07-21T11:08:18.252Z,21.40
2017-07-21T11:10:44.593Z,21.30
2017-07-21T11:13:11.633Z,21.60
2017-07-21T11:15:38.769Z,21.70
2017-07-21T11:18:05.046Z,21.70
2017-07-21T11:20:31.399Z,21.90
2017-07-21T11:22:57.705Z,21.90
2017-07-21T11:25:23.985Z,21.90
2017-07-21T11:27:50.260Z,21.90
2017-07-21T11:30:16.557Z,21.80
2017-07-21T11:32:42.828Z,22.10
2017-07-21T11:35:09.097Z,22.40
2017-07-21T11:37:35.382Z,22.30
2017-07-21T11:40:01.667Z,22.10
2017-07-21T11:42:27.967Z,22.20
2017-07-21T11:44:54.264Z,22.30
2017-07-21T11:47:20.558Z,22.30
2017-07-21T11:49:46.813Z,22.10
2017-07-21T11:52:13.113Z,22.00
2017-07-21T11:54:39.379Z,22.10
2017-07-21T11:57:05.672Z,22.20
2017-07-21T11:59:31.963Z,22.10
2017-07-21T12:01:58.221Z,22.00
2017-07-21T12:04:24.534Z,21.70
2017-07-21T12:06:50.819Z,21.80
2017-07-21T12:09:17.148Z,22.20
2017-07-21T12:11:45.147Z,22.20
2017-07-21T12:14:13.064Z,22.50
2017-07-21T12:16:41.009Z,22.90
2017-07-21T12:19:09.697Z,23.00
2017-07-21T12:21:37.340Z,22.70
2017-07-21T12:24:05.521Z,22.80
2017-07-21T12:26:33.536Z,22.80
2017-07-21T12:29:00.114Z,22.70
2017-07-21T12:31:26.467Z,22.70
2017-07-21T12:33:52.835Z,22.50
2017-07-21T12:36:20.567Z,22.70
2017-07-21T12:38:49.188Z,22.80
2017-07-21T12:41:17.619Z,22.80
2017-07-21T12:43:45.923Z,22.70
2017-07-21T12:46:14.356Z,22.70
2017-07-21T12:48:43.400Z,22.80
2017-07-21T12:51:11.147Z,23.00
2017-07-21T12:53:37.426Z,23.00
2017-07-21T12:56:03.691Z,22.90
2017-07-21T12:58:30.004Z,23.00
2017-07-21T13:00:56.331Z,23.10
2017-07-21T13:03:22.610Z,23.10
2017-07-21T13:05:48.897Z,23.00
2017-07-21T13:08:15.212Z,23.20
2017-07-21T13:10:41.486Z,23.50
2017-07-21T13:13:07.817Z,23.40
2017-07-21T13:15:34.148Z,23.30
2017-07-21T13:18:00.445Z,23.40
2017-07-21T13:20:26.789Z,23.10
2017-07-21T13:22:53.089Z,23.40
2017-07-21T13:25:19.360Z,23.60
2017-07-21T13:27:45.678Z,23.60
2017-07-21T13:30:11.980Z,23.90
2017-07-21T13:32:38.303Z,24.00
2017-07-21T13:35:04.600Z,24.20
2017-07-21T13:37:31.618Z,23.70
2017-07-21T13:39:57.932Z,23.60
2017-07-21T13:42:24.236Z,24.30
2017-07-21T13:44:50.503Z,24.90
2017-07-21T13:47:16.800Z,25.50
2017-07-21T13:49:43.073Z,25.30
2017-07-21T13:52:09.403Z,24.80
2017-07-21T13:54:35.712Z,24.60
2017-07-21T13:57:01.988Z,24.80
2017-07-21T13:59:28.271Z,24.30
2017-07-21T14:01:54.553Z,24.10
2017-07-21T14:04:21.582Z,24.30
2017-07-21T14:06:47.878Z,24.20
2017-07-21T14:09:14.134Z,24.10
2017-07-21T14:11:40.463Z,23.80
2017-07-21T14:14:06.754Z,24.10
2017-07-21T14:16:33.052Z,24.80
2017-07-21T14:19:00.240Z,26.10
2017-07-21T14:21:26.519Z,26.90
2017-07-21T14:23:52.810Z,26.40
2017-07-21T14:26:19.088Z,25.90
2017-07-21T14:28:45.371Z,25.70
2017-07-21T14:31:11.662Z,24.30
2017-07-21T14:33:37.941Z,25.30
2017-07-21T14:36:04.215Z,26.10
2017-07-21T14:38:30.497Z,25.70
2017-07-21T14:40:56.778Z,25.60
2017-07-21T14:43:23.071Z,25.10
2017-07-21T14:45:49.337Z,24.80
2017-07-21T14:48:15.641Z,24.80
2017-07-21T14:50:42.679Z,25.50
2017-07-21T14:53:08.982Z,25.40
2017-07-21T14:55:35.253Z,25.90
2017-07-21T14:58:02.294Z,27.00
2017-07-21T15:00:29.328Z,26.60
2017-07-21T15:02:55.660Z,26.60
2017-07-21T15:05:21.934Z,26.70
2017-07-21T15:07:48.241Z,27.00
2017-07-21T15:10:14.549Z,27.50
2017-07-21T15:12:40.824Z,27.10
2017-07-21T15:15:07.120Z,27.10
2017-07-21T15:17:33.411Z,26.80
2017-07-21T15:19:59.724Z,27.20
2017-07-21T15:22:26.012Z,28.90
2017-07-21T15:24:52.315Z,28.70
2017-07-21T15:27:18.593Z,29.60
2017-07-21T15:29:44.948Z,29.40
2017-07-21T15:32:11.233Z,30.20
2017-07-21T15:34:38.259Z,30.60
2017-07-21T15:37:04.614Z,30.60
2017-07-21T15:39:30.889Z,31.30
2017-07-21T15:41:57.176Z,30.40
2017-07-21T15:44:23.479Z,30.20
2017-07-21T15:46:49.772Z,30.60
2017-07-21T15:49:16.053Z,32.60
2017-07-21T15:51:43.126Z,32.70
2017-07-21T15:54:09.406Z,32.60
2017-07-21T15:56:35.711Z,33.00
2017-07-21T15:59:02.015Z,32.10
2017-07-21T16:01:28.329Z,33.40
2017-07-21T16:03:54.632Z,34.50
2017-07-21T16:06:20.921Z,33.90
2017-07-21T16:08:47.266Z,33.20
2017-07-21T16:11:13.567Z,32.80
2017-07-21T16:13:39.908Z,32.60
2017-07-21T16:16:06.180Z,32.40
2017-07-21T16:18:32.512Z,30.80
2017-07-21T16:20:59.549Z,29.10
2017-07-21T16:23:25.864Z,29.00
2017-07-21T16:25:52.159Z,29.10
2017-07-21T16:28:18.438Z,28.80
2017-07-21T16:30:44.723Z,28.90
2017-07-21T16:33:11.081Z,29.00
2017-07-21T16:35:37.391Z,28.80
2017-07-21T16:38:03.677Z,28.30
2017-07-21T16:40:30.712Z,31.00
2017-07-21T16:42:57.020Z,30.90
2017-07-21T16:45:23.332Z,32.60
2017-07-21T16:47:49.636Z,33.80
2017-07-21T16:50:15.915Z,34.40
2017-07-21T16:52:42.207Z,34.90
2017-07-21T16:55:08.556Z,35.60
2017-07-21T16:57:34.926Z,36.00
2017-07-21T17:00:01.215Z,36.30
2017-07-21T17:02:27.511Z,36.00
2017-07-21T17:04:53.784Z,35.70
2017-07-21T17:07:20.094Z,35.90
2017-07-21T17:09:46.369Z,36.00
2017-07-21T17:12:12.660Z,35.70
2017-07-21T17:14:38.936Z,35.40
2017-07-21T17:17:06.027Z,33.90
2017-07-21T17:19:32.312Z,33.80
2017-07-21T17:21:59.359Z,32.00
2017-07-21T17:24:26.446Z,31.70
2017-07-21T17:26:52.803Z,31.60
2017-07-21T17:29:19.860Z,33.40
2017-07-21T17:31:46.815Z,33.30
2017-07-21T17:34:13.102Z,33.60
2017-07-21T17:36:39.375Z,33.80
2017-07-21T17:39:05.668Z,34.20
2017-07-21T17:41:31.980Z,33.30
2017-07-21T17:43:59.214Z,33.70
2017-07-21T17:46:26.262Z,33.90
2017-07-21T17:48:52.564Z,33.80
2017-07-21T17:51:18.827Z,34.20
2017-07-21T17:53:45.094Z,34.20
2017-07-21T17:56:11.441Z,33.70
2017-07-21T17:58:38.542Z,34.00
2017-07-21T18:01:04.886Z,34.00
2017-07-21T18:03:31.208Z,34.10
2017-07-21T18:05:57.495Z,33.60
2017-07-21T18:08:23.799Z,33.00
2017-07-21T18:10:50.156Z,32.40
2017-07-21T18:13:16.491Z,32.50
2017-07-21T18:15:43.544Z,31.80
2017-07-21T18:18:09.859Z,31.80
2017-07-21T18:20:36.152Z,31.50
2017-07-21T18:23:02.411Z,31.20
2017-07-21T18:25:29.339Z,31.50
2017-07-21T18:27:55.631Z,31.00
2017-07-21T18:30:21.918Z,30.90
2017-07-21T18:32:48.214Z,30.50
2017-07-21T18:35:14.560Z,29.80
2017-07-21T18:37:41.410Z,29.20
2017-07-21T18:40:08.489Z,28.40
2017-07-21T18:42:34.830Z,28.40
2017-07-21T18:45:01.341Z,28.40
2017-07-21T18:47:28.616Z,28.20
2017-07-21T18:49:54.908Z,27.80
2017-07-21T18:52:21.191Z,27.40
2017-07-21T18:54:47.499Z,27.40
2017-07-21T18:57:13.789Z,27.30
2017-07-21T18:59:40.877Z,27.20
2017-07-21T19:02:07.153Z,27.10
2017-07-21T19:04:33.500Z,26.80
2017-07-21T19:06:59.846Z,26.50
2017-07-21T19:09:26.265Z,26.10
2017-07-21T19:11:52.568Z,25.80
2017-07-21T19:14:18.900Z,25.30
2017-07-21T19:16:45.197Z,25.00
2017-07-21T19:19:11.520Z,25.00
2017-07-21T19:21:37.811Z,24.70
2017-07-21T19:24:04.182Z,24.50
2017-07-21T19:26:30.466Z,24.50
2017-07-21T19:28:56.775Z,24.40
2017-07-21T19:31:23.050Z,24.40
2017-07-21T19:33:49.337Z,24.40
2017-07-21T19:36:16.526Z,24.00
2017-07-21T19:38:42.871Z,23.90
2017-07-21T19:41:09.183Z,23.90
2017-07-21T19:43:35.383Z,23.70
2017-07-21T19:46:01.698Z,23.70
2017-07-21T19:48:27.973Z,23.60
2017-07-21T19:50:54.247Z,23.70
2017-07-21T19:53:20.586Z,23.80
2017-07-21T19:55:46.867Z,23.80
2017-07-21T19:58:13.138Z,23.80
2017-07-21T20:00:39.422Z,23.80
2017-07-21T20:03:05.722Z,23.80
2017-07-21T20:05:32.028Z,23.70
2017-07-21T20:08:05.428Z,23.30
2017-07-21T20:10:31.762Z,23.20
2017-07-21T20:12:58.035Z,23.30
2017-07-21T20:15:24.295Z,23.40
2017-07-21T20:17:50.642Z,23.50
2017-07-21T20:20:16.900Z,23.20
2017-07-21T20:22:43.171Z,23.00
2017-07-21T20:25:09.441Z,22.90
2017-07-21T20:27:35.720Z,22.90
2017-07-21T20:30:02.695Z,22.70
2017-07-21T20:32:28.984Z,22.80
2017-07-21T20:34:55.243Z,22.60
2017-07-21T20:37:21.486Z,22.80
2017-07-21T20:39:47.744Z,22.60
2017-07-21T20:42:13.999Z,22.60
2017-07-21T20:44:40.291Z,22.70
2017-07-21T20:47:06.556Z,22.60
2017-07-21T20:49:32.861Z,22.60
2017-07-21T20:51:59.133Z,22.70
2017-07-21T20:54:26.142Z,22.70
2017-07-21T20:56:52.416Z,22.70
2017-07-21T20:59:19.464Z,22.40
2017-07-21T21:01:46.537Z,22.40
2017-07-21T21:04:12.806Z,22.40
2017-07-21T21:06:39.076Z,22.40
2017-07-21T21:09:06.108Z,22.20
2017-07-21T21:11:33.135Z,22.40
2017-07-21T21:13:59.427Z,22.30
2017-07-21T21:16:25.674Z,22.50
2017-07-21T21:18:51.937Z,22.30
2017-07-21T21:21:18.218Z,22.40
2017-07-21T21:23:44.475Z,22.30
2017-07-21T21:26:10.778Z,22.30
2017-07-21T21:28:37.054Z,22.10
2017-07-21T21:31:03.363Z,22.20
2017-07-21T21:33:30.530Z,22.10
2017-07-21T21:35:56.793Z,22.10
2017-07-21T21:38:23.079Z,22.20
2017-07-21T21:40:49.387Z,22.10
2017-07-21T21:43:15.673Z,21.90
2017-07-21T21:45:41.965Z,21.80
2017-07-21T21:48:08.686Z,22.00
2017-07-21T21:50:34.952Z,22.00
2017-07-21T21:53:01.265Z,22.00
2017-07-21T21:55:27.554Z,21.90
2017-07-21T21:57:53.845Z,21.40
2017-07-21T22:00:20.945Z,21.40
2017-07-21T22:02:47.308Z,21.30
2017-07-21T22:05:14.635Z,21.50
2017-07-21T22:07:48.136Z,21.60
2017-07-21T22:10:14.525Z,21.40
2017-07-21T22:12:40.810Z,21.50
2017-07-21T22:15:19.596Z,21.60
2017-07-21T22:17:45.889Z,21.60
2017-07-21T22:20:12.195Z,21.50
2017-07-21T22:22:38.478Z,21.20
2017-07-21T22:25:04.792Z,21.20
2017-07-21T22:27:31.119Z,21.20
2017-07-21T22:29:57.441Z,21.10
2017-07-21T22:32:24.448Z,21.10
2017-07-21T22:34:50.752Z,21.10
2017-07-21T22:37:17.051Z,21.20
2017-07-21T22:39:43.368Z,21.20
2017-07-21T22:42:10.827Z,21.30
2017-07-21T22:44:37.118Z,21.30
2017-07-21T22:47:03.381Z,21.30
2017-07-21T22:49:30.175Z,21.30
2017-07-21T22:51:56.469Z,21.20
2017-07-21T22:54:22.745Z,21.20
2017-07-21T22:56:49.013Z,21.30
2017-07-21T22:59:16.022Z,21.20
2017-07-21T23:01:42.306Z,21.20
2017-07-21T23:04:08.585Z,21.10
2017-07-21T23:06:34.868Z,21.30
2017-07-21T23:09:01.149Z,21.30
2017-07-21T23:11:27.456Z,21.20
2017-07-21T23:13:53.730Z,20.90
2017-07-21T23:16:19.993Z,20.60
2017-07-21T23:18:46.265Z,20.50
2017-07-21T23:21:12.524Z,20.60
2017-07-21T23:23:39.530Z,20.90
2017-07-21T23:26:05.800Z,20.80
2017-07-21T23:28:32.068Z,20.50
2017-07-21T23:30:58.331Z,20.10
2017-07-21T23:33:24.625Z,20.20
2017-07-21T23:35:50.880Z,20.40
2017-07-21T23:38:17.181Z,20.40
2017-07-21T23:40:43.441Z,20.50
2017-07-21T23:43:09.709Z,20.40
2017-07-21T23:45:36.712Z,20.40
2017-07-21T23:48:02.993Z,20.40
2017-07-21T23:50:29.263Z,20.40
2017-07-21T23:52:55.509Z,20.40
2017-07-21T23:55:21.780Z,20.50
2017-07-21T23:57:48.028Z,20.50
